Terminal Aerodrome Forecast
Issued by NWS

Home | Current Version | Previous Version | Text Only | Print | Product List | Glossary On
Versions: 1 2 3 4 5 6 7 8 9 10 11 12 13 14 15 16 17 18 19 20 21 22 23 24 25 26 27 28 29 30 31 32 33 34 35 36 37 38 39 40 41 42 43 44 45 46 47 48 49 50
000
FTUS43 KMKX 200030 AAB
TAFENW
TAF AMD
KENW 200030Z 2001/2024 04007KT 2SM RA SCT008 BKN015
      TEMPO 2002/2003 2SM RA BR BKN008
     FM200300 03008KT 2SM SHRA BR OVC008
     FM200600 35006KT 2SM -SHRA BR OVC003
     FM200900 26008KT 5SM -SHRA BR OVC008
     FM201400 28012KT P6SM -SHRA OVC008
     FM201800 29017G26KT P6SM VCSH OVC035=

USA.gov is the U.S. government's official web portal to all federal, state and local government web resources and services.